sensor_id;sensor_type;location;lat;lon;timestamp;temperature;humidity
65989;HTU21D;53592;51.402;6.054;2022-12-08T00:02:14;5.37;86.16
65989;HTU21D;53592;51.402;6.054;2022-12-08T00:04:40;5.37;86.16
65989;HTU21D;53592;51.402;6.054;2022-12-08T00:07:24;5.39;86.15
65989;HTU21D;53592;51.402;6.054;2022-12-08T00:10:08;5.40;86.17
65989;HTU21D;53592;51.402;6.054;2022-12-08T00:12:34;5.39;86.06
65989;HTU21D;53592;51.402;6.054;2022-12-08T00:14:59;5.37;86.19
65989;HTU21D;53592;51.402;6.054;2022-12-08T00:17:25;5.39;86.28
65989;HTU21D;53592;51.402;6.054;2022-12-08T00:19:50;5.40;86.23
65989;HTU21D;53592;51.402;6.054;2022-12-08T00:22:16;5.42;86.17
65989;HTU21D;53592;51.402;6.054;2022-12-08T00:24:42;5.41;86.19
65989;HTU21D;53592;51.402;6.054;2022-12-08T00:27:12;5.40;86.22
65989;HTU21D;53592;51.402;6.054;2022-12-08T00:29:38;5.40;86.25
65989;HTU21D;53592;51.402;6.054;2022-12-08T00:32:04;5.39;86.27
65989;HTU21D;53592;51.402;6.054;2022-12-08T00:34:30;5.40;86.26
65989;HTU21D;53592;51.402;6.054;2022-12-08T00:36:56;5.37;86.29
65989;HTU21D;53592;51.402;6.054;2022-12-08T00:39:21;5.36;86.35
65989;HTU21D;53592;51.402;6.054;2022-12-08T00:41:47;5.37;86.36
65989;HTU21D;53592;51.402;6.054;2022-12-08T00:44:31;5.36;86.38
65989;HTU21D;53592;51.402;6.054;2022-12-08T00:46:56;5.37;86.35
65989;HTU21D;53592;51.402;6.054;2022-12-08T00:49:22;5.35;86.45
65989;HTU21D;53592;51.402;6.054;2022-12-08T00:51:48;5.35;86.50
65989;HTU21D;53592;51.402;6.054;2022-12-08T00:54:14;5.35;86.48
65989;HTU21D;53592;51.402;6.054;2022-12-08T00:56:39;5.37;86.51
65989;HTU21D;53592;51.402;6.054;2022-12-08T00:59:06;5.38;86.48
65989;HTU21D;53592;51.402;6.054;2022-12-08T01:01:33;5.37;86.38
65989;HTU21D;53592;51.402;6.054;2022-12-08T01:04:07;5.35;86.36
65989;HTU21D;53592;51.402;6.054;2022-12-08T01:06:35;5.35;86.41
65989;HTU21D;53592;51.402;6.054;2022-12-08T01:09:02;5.33;86.35
65989;HTU21D;53592;51.402;6.054;2022-12-08T01:11:28;5.31;86.41
65989;HTU21D;53592;51.402;6.054;2022-12-08T01:13:54;5.31;86.54
65989;HTU21D;53592;51.402;6.054;2022-12-08T01:16:26;5.30;86.54
65989;HTU21D;53592;51.402;6.054;2022-12-08T01:18:52;5.30;86.54
65989;HTU21D;53592;51.402;6.054;2022-12-08T01:21:18;5.30;86.60
65989;HTU21D;53592;51.402;6.054;2022-12-08T01:23:44;5.28;86.58
65989;HTU21D;53592;51.402;6.054;2022-12-08T01:26:13;5.26;86.61
65989;HTU21D;53592;51.402;6.054;2022-12-08T01:28:39;5.27;86.68
65989;HTU21D;53592;51.402;6.054;2022-12-08T01:31:11;5.26;86.77
65989;HTU21D;53592;51.402;6.054;2022-12-08T01:33:37;5.27;86.78
65989;HTU21D;53592;51.402;6.054;2022-12-08T01:36:04;5.26;86.80
65989;HTU21D;53592;51.402;6.054;2022-12-08T01:38:30;5.27;86.80
65989;HTU21D;53592;51.402;6.054;2022-12-08T01:40:56;5.23;86.90
65989;HTU21D;53592;51.402;6.054;2022-12-08T01:43:22;5.24;87.06
65989;HTU21D;53592;51.402;6.054;2022-12-08T01:45:47;5.23;87.06
65989;HTU21D;53592;51.402;6.054;2022-12-08T01:48:17;5.25;87.09
65989;HTU21D;53592;51.402;6.054;2022-12-08T01:50:46;5.26;87.02
65989;HTU21D;53592;51.402;6.054;2022-12-08T01:53:19;5.25;86.96
65989;HTU21D;53592;51.402;6.054;2022-12-08T01:55:53;5.23;87.07
65989;HTU21D;53592;51.402;6.054;2022-12-08T01:58:30;5.24;87.06
65989;HTU21D;53592;51.402;6.054;2022-12-08T02:00:56;5.27;87.06
65989;HTU21D;53592;51.402;6.054;2022-12-08T02:03:30;5.31;87.08
65989;HTU21D;53592;51.402;6.054;2022-12-08T02:05:58;5.33;86.93
65989;HTU21D;53592;51.402;6.054;2022-12-08T02:08:24;5.34;86.86
65989;HTU21D;53592;51.402;6.054;2022-12-08T02:10:51;5.36;86.75
65989;HTU21D;53592;51.402;6.054;2022-12-08T02:13:21;5.35;86.80
65989;HTU21D;53592;51.402;6.054;2022-12-08T02:15:50;5.38;86.67
65989;HTU21D;53592;51.402;6.054;2022-12-08T02:18:40;5.37;86.60
65989;HTU21D;53592;51.402;6.054;2022-12-08T02:24:21;5.35;86.59
65989;HTU21D;53592;51.402;6.054;2022-12-08T02:30:06;5.34;86.50
65989;HTU21D;53592;51.402;6.054;2022-12-08T02:35:17;5.31;86.57
65989;HTU21D;53592;51.402;6.054;2022-12-08T02:37:57;5.32;86.64
65989;HTU21D;53592;51.402;6.054;2022-12-08T02:40:47;5.31;86.64
65989;HTU21D;53592;51.402;6.054;2022-12-08T02:43:27;5.31;86.67
65989;HTU21D;53592;51.402;6.054;2022-12-08T02:46:00;5.31;86.73
65989;HTU21D;53592;51.402;6.054;2022-12-08T02:48:28;5.30;86.68
65989;HTU21D;53592;51.402;6.054;2022-12-08T02:50:54;5.30;86.83
65989;HTU21D;53592;51.402;6.054;2022-12-08T02:53:19;5.30;86.87
65989;HTU21D;53592;51.402;6.054;2022-12-08T02:59:17;5.31;86.86
65989;HTU21D;53592;51.402;6.054;2022-12-08T03:13:41;5.24;86.99
65989;HTU21D;53592;51.402;6.054;2022-12-08T03:16:11;5.23;87.03
65989;HTU21D;53592;51.402;6.054;2022-12-08T03:18:44;5.22;87.14
65989;HTU21D;53592;51.402;6.054;2022-12-08T03:21:14;5.22;87.22
65989;HTU21D;53592;51.402;6.054;2022-12-08T03:23:44;5.21;87.20
65989;HTU21D;53592;51.402;6.054;2022-12-08T03:26:17;5.23;87.28
65989;HTU21D;53592;51.402;6.054;2022-12-08T03:28:44;5.25;87.10
65989;HTU21D;53592;51.402;6.054;2022-12-08T03:31:12;5.24;87.11
65989;HTU21D;53592;51.402;6.054;2022-12-08T03:33:43;5.28;87.10
65989;HTU21D;53592;51.402;6.054;2022-12-08T03:36:13;5.27;87.12
65989;HTU21D;53592;51.402;6.054;2022-12-08T03:38:41;5.27;86.93
65989;HTU21D;53592;51.402;6.054;2022-12-08T03:41:07;5.24;87.05
65989;HTU21D;53592;51.402;6.054;2022-12-08T03:43:50;5.24;87.12
65989;HTU21D;53592;51.402;6.054;2022-12-08T03:46:17;5.26;87.08
65989;HTU21D;53592;51.402;6.054;2022-12-08T03:48:43;5.23;87.10
65989;HTU21D;53592;51.402;6.054;2022-12-08T03:51:10;5.25;87.17
65989;HTU21D;53592;51.402;6.054;2022-12-08T03:53:36;5.26;87.12
65989;HTU21D;53592;51.402;6.054;2022-12-08T03:56:21;5.25;87.16
65989;HTU21D;53592;51.402;6.054;2022-12-08T03:58:47;5.30;87.16
65989;HTU21D;53592;51.402;6.054;2022-12-08T04:01:13;5.30;87.10
65989;HTU21D;53592;51.402;6.054;2022-12-08T04:03:38;5.31;87.08
65989;HTU21D;53592;51.402;6.054;2022-12-08T04:06:04;5.32;87.06
65989;HTU21D;53592;51.402;6.054;2022-12-08T04:08:30;5.31;86.96
65989;HTU21D;53592;51.402;6.054;2022-12-08T04:10:56;5.31;86.96
65989;HTU21D;53592;51.402;6.054;2022-12-08T04:13:21;5.30;87.04
65989;HTU21D;53592;51.402;6.054;2022-12-08T04:15:47;5.32;87.15
65989;HTU21D;53592;51.402;6.054;2022-12-08T04:18:13;5.32;87.07
65989;HTU21D;53592;51.402;6.054;2022-12-08T04:20:39;5.32;86.96
65989;HTU21D;53592;51.402;6.054;2022-12-08T04:23:06;5.34;87.09
65989;HTU21D;53592;51.402;6.054;2022-12-08T04:25:32;5.33;87.09
65989;HTU21D;53592;51.402;6.054;2022-12-08T04:27:58;5.36;87.05
65989;HTU21D;53592;51.402;6.054;2022-12-08T04:30:23;5.36;86.92
65989;HTU21D;53592;51.402;6.054;2022-12-08T04:32:49;5.35;87.06
65989;HTU21D;53592;51.402;6.054;2022-12-08T04:35:14;5.36;87.05
65989;HTU21D;53592;51.402;6.054;2022-12-08T04:37:40;5.37;87.10
65989;HTU21D;53592;51.402;6.054;2022-12-08T04:40:06;5.38;87.13
65989;HTU21D;53592;51.402;6.054;2022-12-08T04:42:31;5.40;87.18
65989;HTU21D;53592;51.402;6.054;2022-12-08T04:44:57;5.39;87.14
65989;HTU21D;53592;51.402;6.054;2022-12-08T04:47:22;5.38;87.12
65989;HTU21D;53592;51.402;6.054;2022-12-08T04:49:48;5.41;87.23
65989;HTU21D;53592;51.402;6.054;2022-12-08T04:52:13;5.45;87.28
65989;HTU21D;53592;51.402;6.054;2022-12-08T04:54:39;5.46;87.15
65989;HTU21D;53592;51.402;6.054;2022-12-08T04:57:04;5.48;86.99
65989;HTU21D;53592;51.402;6.054;2022-12-08T04:59:30;5.48;87.09
65989;HTU21D;53592;51.402;6.054;2022-12-08T05:01:55;5.50;87.02
65989;HTU21D;53592;51.402;6.054;2022-12-08T05:04:21;5.47;87.06
65989;HTU21D;53592;51.402;6.054;2022-12-08T05:06:46;5.48;86.99
65989;HTU21D;53592;51.402;6.054;2022-12-08T05:09:12;5.43;87.16
65989;HTU21D;53592;51.402;6.054;2022-12-08T05:11:37;5.40;87.29
65989;HTU21D;53592;51.402;6.054;2022-12-08T05:14:14;5.38;87.40
65989;HTU21D;53592;51.402;6.054;2022-12-08T05:16:40;5.39;87.51
65989;HTU21D;53592;51.402;6.054;2022-12-08T05:19:06;5.39;87.54
65989;HTU21D;53592;51.402;6.054;2022-12-08T05:21:32;5.36;87.57
65989;HTU21D;53592;51.402;6.054;2022-12-08T05:23:58;5.39;87.61
65989;HTU21D;53592;51.402;6.054;2022-12-08T05:26:23;5.36;87.65
65989;HTU21D;53592;51.402;6.054;2022-12-08T05:28:49;5.37;87.65
65989;HTU21D;53592;51.402;6.054;2022-12-08T05:31:16;5.38;87.62
65989;HTU21D;53592;51.402;6.054;2022-12-08T05:33:43;5.38;87.57
65989;HTU21D;53592;51.402;6.054;2022-12-08T05:36:12;5.36;87.55
65989;HTU21D;53592;51.402;6.054;2022-12-08T05:38:38;5.35;87.57
65989;HTU21D;53592;51.402;6.054;2022-12-08T05:41:07;5.37;87.51
65989;HTU21D;53592;51.402;6.054;2022-12-08T05:43:33;5.38;87.42
65989;HTU21D;53592;51.402;6.054;2022-12-08T05:45:58;5.35;87.48
65989;HTU21D;53592;51.402;6.054;2022-12-08T05:48:24;5.34;87.56
65989;HTU21D;53592;51.402;6.054;2022-12-08T05:50:50;5.33;87.44
65989;HTU21D;53592;51.402;6.054;2022-12-08T05:53:18;5.35;87.41
65989;HTU21D;53592;51.402;6.054;2022-12-08T05:55:45;5.35;87.37
65989;HTU21D;53592;51.402;6.054;2022-12-08T05:58:19;5.36;87.40
65989;HTU21D;53592;51.402;6.054;2022-12-08T06:00:46;5.37;87.35
65989;HTU21D;53592;51.402;6.054;2022-12-08T06:03:13;5.39;87.30
65989;HTU21D;53592;51.402;6.054;2022-12-08T06:05:40;5.38;87.35
65989;HTU21D;53592;51.402;6.054;2022-12-08T06:08:06;5.39;87.31
65989;HTU21D;53592;51.402;6.054;2022-12-08T06:10:31;5.37;87.28
65989;HTU21D;53592;51.402;6.054;2022-12-08T06:12:57;5.36;87.27
65989;HTU21D;53592;51.402;6.054;2022-12-08T06:15:22;5.37;87.24
65989;HTU21D;53592;51.402;6.054;2022-12-08T06:17:48;5.35;87.21
65989;HTU21D;53592;51.402;6.054;2022-12-08T06:20:14;5.30;87.20
65989;HTU21D;53592;51.402;6.054;2022-12-08T06:22:39;5.31;87.25
65989;HTU21D;53592;51.402;6.054;2022-12-08T06:25:05;5.31;87.30
65989;HTU21D;53592;51.402;6.054;2022-12-08T06:27:32;5.30;87.28
65989;HTU21D;53592;51.402;6.054;2022-12-08T06:29:57;5.31;87.28
65989;HTU21D;53592;51.402;6.054;2022-12-08T06:32:23;5.25;87.26
65989;HTU21D;53592;51.402;6.054;2022-12-08T06:34:48;5.27;87.38
65989;HTU21D;53592;51.402;6.054;2022-12-08T06:37:14;5.28;87.47
65989;HTU21D;53592;51.402;6.054;2022-12-08T06:39:40;5.28;87.36
65989;HTU21D;53592;51.402;6.054;2022-12-08T06:42:05;5.30;87.38
65989;HTU21D;53592;51.402;6.054;2022-12-08T06:44:50;5.32;87.28
65989;HTU21D;53592;51.402;6.054;2022-12-08T06:47:16;5.33;87.05
65989;HTU21D;53592;51.402;6.054;2022-12-08T06:49:41;5.30;87.00
65989;HTU21D;53592;51.402;6.054;2022-12-08T06:52:07;5.25;87.09
65989;HTU21D;53592;51.402;6.054;2022-12-08T06:54:32;5.23;87.12
65989;HTU21D;53592;51.402;6.054;2022-12-08T06:56:58;5.24;86.70
65989;HTU21D;53592;51.402;6.054;2022-12-08T06:59:23;5.16;86.64
65989;HTU21D;53592;51.402;6.054;2022-12-08T07:01:51;5.15;86.58
65989;HTU21D;53592;51.402;6.054;2022-12-08T07:04:16;5.15;86.62
65989;HTU21D;53592;51.402;6.054;2022-12-08T07:06:42;5.15;86.68
65989;HTU21D;53592;51.402;6.054;2022-12-08T07:09:07;5.15;86.66
65989;HTU21D;53592;51.402;6.054;2022-12-08T07:11:33;5.15;86.72
65989;HTU21D;53592;51.402;6.054;2022-12-08T07:13:59;5.16;86.72
65989;HTU21D;53592;51.402;6.054;2022-12-08T07:16:24;5.17;86.64
65989;HTU21D;53592;51.402;6.054;2022-12-08T07:18:50;5.13;86.54
65989;HTU21D;53592;51.402;6.054;2022-12-08T07:21:16;5.13;86.71
65989;HTU21D;53592;51.402;6.054;2022-12-08T07:23:45;5.16;86.64
65989;HTU21D;53592;51.402;6.054;2022-12-08T07:26:12;5.17;86.74
65989;HTU21D;53592;51.402;6.054;2022-12-08T07:28:39;5.17;86.75
65989;HTU21D;53592;51.402;6.054;2022-12-08T07:31:07;5.18;86.79
65989;HTU21D;53592;51.402;6.054;2022-12-08T07:33:34;5.17;86.84
65989;HTU21D;53592;51.402;6.054;2022-12-08T07:36:03;5.19;86.86
65989;HTU21D;53592;51.402;6.054;2022-12-08T07:38:29;5.21;86.93
65989;HTU21D;53592;51.402;6.054;2022-12-08T07:40:55;5.22;86.92
65989;HTU21D;53592;51.402;6.054;2022-12-08T07:43:22;5.24;86.90
65989;HTU21D;53592;51.402;6.054;2022-12-08T07:45:48;5.24;86.88
65989;HTU21D;53592;51.402;6.054;2022-12-08T07:48:14;5.25;86.89
65989;HTU21D;53592;51.402;6.054;2022-12-08T07:50:40;5.25;86.86
65989;HTU21D;53592;51.402;6.054;2022-12-08T07:53:06;5.28;86.80
65989;HTU21D;53592;51.402;6.054;2022-12-08T07:55:31;5.26;86.77
65989;HTU21D;53592;51.402;6.054;2022-12-08T07:57:57;5.28;86.86
65989;HTU21D;53592;51.402;6.054;2022-12-08T08:00:22;5.31;86.88
65989;HTU21D;53592;51.402;6.054;2022-12-08T08:02:48;5.33;86.79
65989;HTU21D;53592;51.402;6.054;2022-12-08T08:05:13;5.36;86.56
65989;HTU21D;53592;51.402;6.054;2022-12-08T08:07:40;5.35;86.61
65989;HTU21D;53592;51.402;6.054;2022-12-08T08:10:11;5.35;86.56
65989;HTU21D;53592;51.402;6.054;2022-12-08T08:12:37;5.36;86.56
65989;HTU21D;53592;51.402;6.054;2022-12-08T08:15:05;5.34;86.55
65989;HTU21D;53592;51.402;6.054;2022-12-08T08:17:35;5.35;86.55
65989;HTU21D;53592;51.402;6.054;2022-12-08T08:20:01;5.32;86.58
65989;HTU21D;53592;51.402;6.054;2022-12-08T08:22:27;5.34;86.65
65989;HTU21D;53592;51.402;6.054;2022-12-08T08:24:53;5.37;86.64
65989;HTU21D;53592;51.402;6.054;2022-12-08T08:27:19;5.35;86.60
65989;HTU21D;53592;51.402;6.054;2022-12-08T08:29:44;5.35;86.51
65989;HTU21D;53592;51.402;6.054;2022-12-08T08:32:10;5.37;86.45
65989;HTU21D;53592;51.402;6.054;2022-12-08T08:34:35;5.34;86.47
65989;HTU21D;53592;51.402;6.054;2022-12-08T08:37:01;5.31;86.33
65989;HTU21D;53592;51.402;6.054;2022-12-08T08:39:27;5.26;86.43
65989;HTU21D;53592;51.402;6.054;2022-12-08T08:41:54;5.24;86.48
65989;HTU21D;53592;51.402;6.054;2022-12-08T08:44:20;5.21;86.69
65989;HTU21D;53592;51.402;6.054;2022-12-08T08:46:45;5.27;86.67
65989;HTU21D;53592;51.402;6.054;2022-12-08T08:49:11;5.25;86.77
65989;HTU21D;53592;51.402;6.054;2022-12-08T08:51:36;5.27;86.80
65989;HTU21D;53592;51.402;6.054;2022-12-08T08:54:02;5.26;86.67
65989;HTU21D;53592;51.402;6.054;2022-12-08T08:56:27;5.23;86.64
65989;HTU21D;53592;51.402;6.054;2022-12-08T08:58:53;5.21;86.83
65989;HTU21D;53592;51.402;6.054;2022-12-08T09:01:24;5.25;86.82
65989;HTU21D;53592;51.402;6.054;2022-12-08T09:03:50;5.24;86.79
65989;HTU21D;53592;51.402;6.054;2022-12-08T09:06:17;5.27;86.83
65989;HTU21D;53592;51.402;6.054;2022-12-08T09:08:43;5.25;86.78
65989;HTU21D;53592;51.402;6.054;2022-12-08T09:11:09;5.22;86.87
65989;HTU21D;53592;51.402;6.054;2022-12-08T09:13:34;5.20;87.07
65989;HTU21D;53592;51.402;6.054;2022-12-08T09:16:01;5.23;87.16
65989;HTU21D;53592;51.402;6.054;2022-12-08T09:18:27;5.25;87.21
65989;HTU21D;53592;51.402;6.054;2022-12-08T09:20:54;5.24;87.22
65989;HTU21D;53592;51.402;6.054;2022-12-08T09:23:19;5.26;87.25
65989;HTU21D;53592;51.402;6.054;2022-12-08T09:25:45;5.25;87.27
65989;HTU21D;53592;51.402;6.054;2022-12-08T09:28:11;5.30;87.19
65989;HTU21D;53592;51.402;6.054;2022-12-08T09:30:37;5.30;87.09
65989;HTU21D;53592;51.402;6.054;2022-12-08T09:33:03;5.31;87.03
65989;HTU21D;53592;51.402;6.054;2022-12-08T09:35:28;5.28;87.11
65989;HTU21D;53592;51.402;6.054;2022-12-08T09:37:53;5.30;87.17
65989;HTU21D;53592;51.402;6.054;2022-12-08T09:40:22;5.32;87.09
65989;HTU21D;53592;51.402;6.054;2022-12-08T09:43:02;5.32;87.12
65989;HTU21D;53592;51.402;6.054;2022-12-08T09:45:33;5.31;87.04
65989;HTU21D;53592;51.402;6.054;2022-12-08T09:48:01;5.32;87.04
65989;HTU21D;53592;51.402;6.054;2022-12-08T09:50:45;5.33;86.90
65989;HTU21D;53592;51.402;6.054;2022-12-08T09:53:31;5.32;87.00
65989;HTU21D;53592;51.402;6.054;2022-12-08T09:56:14;5.31;86.96
65989;HTU21D;53592;51.402;6.054;2022-12-08T09:58:55;5.32;87.02
65989;HTU21D;53592;51.402;6.054;2022-12-08T10:01:26;5.33;87.03
65989;HTU21D;53592;51.402;6.054;2022-12-08T10:03:51;5.35;87.06
65989;HTU21D;53592;51.402;6.054;2022-12-08T10:06:40;5.36;87.09
65989;HTU21D;53592;51.402;6.054;2022-12-08T10:12:26;5.39;86.93
65989;HTU21D;53592;51.402;6.054;2022-12-08T10:14:59;5.39;86.93
65989;HTU21D;53592;51.402;6.054;2022-12-08T10:17:34;5.40;86.80
65989;HTU21D;53592;51.402;6.054;2022-12-08T10:20:23;5.41;86.74
65989;HTU21D;53592;51.402;6.054;2022-12-08T10:26:01;5.46;86.56
65989;HTU21D;53592;51.402;6.054;2022-12-08T10:28:27;5.45;86.51
65989;HTU21D;53592;51.402;6.054;2022-12-08T10:30:53;5.45;86.61
65989;HTU21D;53592;51.402;6.054;2022-12-08T10:33:20;5.48;86.60
65989;HTU21D;53592;51.402;6.054;2022-12-08T10:35:47;5.48;86.40
65989;HTU21D;53592;51.402;6.054;2022-12-08T10:38:20;5.49;86.33
65989;HTU21D;53592;51.402;6.054;2022-12-08T10:40:47;5.50;86.35
65989;HTU21D;53592;51.402;6.054;2022-12-08T10:43:20;5.51;86.34
65989;HTU21D;53592;51.402;6.054;2022-12-08T10:45:46;5.54;86.37
65989;HTU21D;53592;51.402;6.054;2022-12-08T10:48:25;5.53;86.03
65989;HTU21D;53592;51.402;6.054;2022-12-08T10:50:58;5.51;85.99
65989;HTU21D;53592;51.402;6.054;2022-12-08T10:53:27;5.52;86.03
65989;HTU21D;53592;51.402;6.054;2022-12-08T10:58:41;5.54;86.14
65989;HTU21D;53592;51.402;6.054;2022-12-08T11:03:49;5.55;86.05
65989;HTU21D;53592;51.402;6.054;2022-12-08T11:06:19;5.57;85.92
65989;HTU21D;53592;51.402;6.054;2022-12-08T11:08:50;5.57;85.92
65989;HTU21D;53592;51.402;6.054;2022-12-08T11:11:17;5.61;85.89
65989;HTU21D;53592;51.402;6.054;2022-12-08T11:13:43;5.63;85.89
65989;HTU21D;53592;51.402;6.054;2022-12-08T11:16:12;5.66;85.68
65989;HTU21D;53592;51.402;6.054;2022-12-08T11:18:44;5.64;85.63
65989;HTU21D;53592;51.402;6.054;2022-12-08T11:21:18;5.64;85.80
65989;HTU21D;53592;51.402;6.054;2022-12-08T11:23:49;5.66;85.79
65989;HTU21D;53592;51.402;6.054;2022-12-08T11:26:29;5.69;85.79
65989;HTU21D;53592;51.402;6.054;2022-12-08T11:28:56;5.69;85.73
65989;HTU21D;53592;51.402;6.054;2022-12-08T11:31:35;5.72;85.84
65989;HTU21D;53592;51.402;6.054;2022-12-08T11:34:05;5.76;85.75
65989;HTU21D;53592;51.402;6.054;2022-12-08T11:36:34;5.78;85.42
65989;HTU21D;53592;51.402;6.054;2022-12-08T11:39:02;5.76;85.34
65989;HTU21D;53592;51.402;6.054;2022-12-08T11:41:37;5.74;85.32
65989;HTU21D;53592;51.402;6.054;2022-12-08T11:49:09;5.63;85.06
65989;HTU21D;53592;51.402;6.054;2022-12-08T11:54:29;5.52;84.85
65989;HTU21D;53592;51.402;6.054;2022-12-08T11:56:58;5.52;85.10
65989;HTU21D;53592;51.402;6.054;2022-12-08T11:59:28;5.52;85.12
65989;HTU21D;53592;51.402;6.054;2022-12-08T12:01:57;5.50;85.24
65989;HTU21D;53592;51.402;6.054;2022-12-08T12:04:37;5.49;85.23
65989;HTU21D;53592;51.402;6.054;2022-12-08T12:12:59;5.46;84.86
65989;HTU21D;53592;51.402;6.054;2022-12-08T12:18:42;5.27;85.08
65989;HTU21D;53592;51.402;6.054;2022-12-08T12:21:21;5.26;85.43
65989;HTU21D;53592;51.402;6.054;2022-12-08T12:23:52;5.31;85.72
65989;HTU21D;53592;51.402;6.054;2022-12-08T12:26:22;5.36;85.62
65989;HTU21D;53592;51.402;6.054;2022-12-08T12:28:54;5.35;85.72
65989;HTU21D;53592;51.402;6.054;2022-12-08T12:31:33;5.35;85.80
65989;HTU21D;53592;51.402;6.054;2022-12-08T12:34:24;5.42;85.86
65989;HTU21D;53592;51.402;6.054;2022-12-08T12:39:27;5.47;85.66
65989;HTU21D;53592;51.402;6.054;2022-12-08T12:42:01;5.48;85.59
65989;HTU21D;53592;51.402;6.054;2022-12-08T12:46:55;5.52;85.53
65989;HTU21D;53592;51.402;6.054;2022-12-08T13:05:25;5.52;85.26
65989;HTU21D;53592;51.402;6.054;2022-12-08T13:10:32;5.59;85.36
65989;HTU21D;53592;51.402;6.054;2022-12-08T13:18:26;5.63;85.07
65989;HTU21D;53592;51.402;6.054;2022-12-08T13:26:22;5.71;84.84
65989;HTU21D;53592;51.402;6.054;2022-12-08T13:34:39;5.78;84.51
65989;HTU21D;53592;51.402;6.054;2022-12-08T13:42:16;5.84;84.40
65989;HTU21D;53592;51.402;6.054;2022-12-08T13:44:53;5.84;84.40
65989;HTU21D;53592;51.402;6.054;2022-12-08T13:47:29;5.90;84.40
65989;HTU21D;53592;51.402;6.054;2022-12-08T13:50:13;5.93;84.25
65989;HTU21D;53592;51.402;6.054;2022-12-08T13:55:27;5.94;84.14
65989;HTU21D;53592;51.402;6.054;2022-12-08T13:57:54;5.99;84.13
65989;HTU21D;53592;51.402;6.054;2022-12-08T14:00:23;6.04;83.74
65989;HTU21D;53592;51.402;6.054;2022-12-08T14:02:56;6.05;83.74
65989;HTU21D;53592;51.402;6.054;2022-12-08T14:05:24;6.04;83.58
65989;HTU21D;53592;51.402;6.054;2022-12-08T14:07:54;6.04;83.51
65989;HTU21D;53592;51.402;6.054;2022-12-08T14:10:29;6.01;83.35
65989;HTU21D;53592;51.402;6.054;2022-12-08T14:13:03;5.96;83.69
65989;HTU21D;53592;51.402;6.054;2022-12-08T14:15:33;5.97;83.58
65989;HTU21D;53592;51.402;6.054;2022-12-08T14:17:59;5.92;83.84
65989;HTU21D;53592;51.402;6.054;2022-12-08T14:20:28;5.90;83.96
65989;HTU21D;53592;51.402;6.054;2022-12-08T14:22:55;5.83;83.99
65989;HTU21D;53592;51.402;6.054;2022-12-08T14:25:22;5.75;84.03
65989;HTU21D;53592;51.402;6.054;2022-12-08T14:27:48;5.65;84.14
65989;HTU21D;53592;51.402;6.054;2022-12-08T14:30:17;5.63;84.46
65989;HTU21D;53592;51.402;6.054;2022-12-08T14:32:48;5.61;84.69
65989;HTU21D;53592;51.402;6.054;2022-12-08T14:35:35;5.57;84.77
65989;HTU21D;53592;51.402;6.054;2022-12-08T14:38:04;5.56;85.00
65989;HTU21D;53592;51.402;6.054;2022-12-08T14:40:41;5.54;85.04
65989;HTU21D;53592;51.402;6.054;2022-12-08T14:45:54;5.52;85.19
65989;HTU21D;53592;51.402;6.054;2022-12-08T14:56:41;5.48;85.43
65989;HTU21D;53592;51.402;6.054;2022-12-08T15:01:42;5.45;85.58
65989;HTU21D;53592;51.402;6.054;2022-12-08T15:06:36;5.37;85.52
65989;HTU21D;53592;51.402;6.054;2022-12-08T15:09:15;5.35;85.80
65989;HTU21D;53592;51.402;6.054;2022-12-08T15:11:42;5.31;85.87
65989;HTU21D;53592;51.402;6.054;2022-12-08T15:14:27;5.22;85.93
65989;HTU21D;53592;51.402;6.054;2022-12-08T15:16:53;5.17;86.09
65989;HTU21D;53592;51.402;6.054;2022-12-08T15:19:32;5.16;86.30
65989;HTU21D;53592;51.402;6.054;2022-12-08T15:22:11;5.16;86.35
65989;HTU21D;53592;51.402;6.054;2022-12-08T15:24:37;5.16;86.36
65989;HTU21D;53592;51.402;6.054;2022-12-08T15:27:03;5.20;86.33
65989;HTU21D;53592;51.402;6.054;2022-12-08T15:29:29;5.21;86.22
65989;HTU21D;53592;51.402;6.054;2022-12-08T15:31:57;5.20;86.13
65989;HTU21D;53592;51.402;6.054;2022-12-08T15:34:23;5.19;85.93
65989;HTU21D;53592;51.402;6.054;2022-12-08T15:36:51;5.15;86.05
65989;HTU21D;53592;51.402;6.054;2022-12-08T15:39:58;5.13;86.13
65989;HTU21D;53592;51.402;6.054;2022-12-08T15:42:10;5.12;86.22
65989;HTU21D;53592;51.402;6.054;2022-12-08T15:44:37;5.15;86.20
65989;HTU21D;53592;51.402;6.054;2022-12-08T15:47:03;5.10;86.03
65989;HTU21D;53592;51.402;6.054;2022-12-08T15:49:29;5.07;85.65
65989;HTU21D;53592;51.402;6.054;2022-12-08T15:51:54;5.02;86.04
65989;HTU21D;53592;51.402;6.054;2022-12-08T15:54:20;4.97;86.09
65989;HTU21D;53592;51.402;6.054;2022-12-08T15:56:53;4.98;86.08
65989;HTU21D;53592;51.402;6.054;2022-12-08T15:59:21;5.01;86.11
65989;HTU21D;53592;51.402;6.054;2022-12-08T16:01:48;5.03;85.94
65989;HTU21D;53592;51.402;6.054;2022-12-08T16:04:16;5.05;85.87
65989;HTU21D;53592;51.402;6.054;2022-12-08T16:06:46;5.07;85.80
65989;HTU21D;53592;51.402;6.054;2022-12-08T16:11:57;5.07;85.49
65989;HTU21D;53592;51.402;6.054;2022-12-08T16:14:42;5.06;85.45
65989;HTU21D;53592;51.402;6.054;2022-12-08T16:17:16;5.04;85.41
65989;HTU21D;53592;51.402;6.054;2022-12-08T16:19:42;5.04;85.26
65989;HTU21D;53592;51.402;6.054;2022-12-08T16:22:41;5.05;85.29
65989;HTU21D;53592;51.402;6.054;2022-12-08T16:25:07;5.01;85.19
65989;HTU21D;53592;51.402;6.054;2022-12-08T16:27:35;4.97;85.23
65989;HTU21D;53592;51.402;6.054;2022-12-08T16:30:01;4.97;85.15
65989;HTU21D;53592;51.402;6.054;2022-12-08T16:32:27;4.94;84.88
65989;HTU21D;53592;51.402;6.054;2022-12-08T16:34:53;4.89;84.75
65989;HTU21D;53592;51.402;6.054;2022-12-08T16:37:21;4.81;84.70
65989;HTU21D;53592;51.402;6.054;2022-12-08T16:39:48;4.77;84.67
65989;HTU21D;53592;51.402;6.054;2022-12-08T16:42:29;4.73;84.71
65989;HTU21D;53592;51.402;6.054;2022-12-08T16:47:37;4.63;84.56
65989;HTU21D;53592;51.402;6.054;2022-12-08T16:50:09;4.61;84.64
65989;HTU21D;53592;51.402;6.054;2022-12-08T16:52:34;4.59;84.72
65989;HTU21D;53592;51.402;6.054;2022-12-08T16:55:00;4.54;84.83
65989;HTU21D;53592;51.402;6.054;2022-12-08T16:57:26;4.54;84.77
65989;HTU21D;53592;51.402;6.054;2022-12-08T16:59:51;4.48;84.68
65989;HTU21D;53592;51.402;6.054;2022-12-08T17:02:17;4.46;84.81
65989;HTU21D;53592;51.402;6.054;2022-12-08T17:04:42;4.45;84.76
65989;HTU21D;53592;51.402;6.054;2022-12-08T17:07:08;4.45;84.71
65989;HTU21D;53592;51.402;6.054;2022-12-08T17:09:33;4.43;84.65
65989;HTU21D;53592;51.402;6.054;2022-12-08T17:11:59;4.36;84.61
65989;HTU21D;53592;51.402;6.054;2022-12-08T17:14:25;4.33;84.61
65989;HTU21D;53592;51.402;6.054;2022-12-08T17:16:50;4.30;84.64
65989;HTU21D;53592;51.402;6.054;2022-12-08T17:19:15;4.26;84.87
65989;HTU21D;53592;51.402;6.054;2022-12-08T17:21:42;4.27;84.92
65989;HTU21D;53592;51.402;6.054;2022-12-08T17:24:09;4.28;84.88
65989;HTU21D;53592;51.402;6.054;2022-12-08T17:26:34;4.27;84.65
65989;HTU21D;53592;51.402;6.054;2022-12-08T17:29:01;4.21;84.61
65989;HTU21D;53592;51.402;6.054;2022-12-08T17:31:29;4.13;84.59
65989;HTU21D;53592;51.402;6.054;2022-12-08T17:33:57;4.08;84.68
65989;HTU21D;53592;51.402;6.054;2022-12-08T17:36:23;4.06;84.85
65989;HTU21D;53592;51.402;6.054;2022-12-08T17:38:48;4.01;84.77
65989;HTU21D;53592;51.402;6.054;2022-12-08T17:41:14;3.97;84.72
65989;HTU21D;53592;51.402;6.054;2022-12-08T17:43:39;3.93;84.86